sensor_id;sensor_type;location;lat;lon;timestamp;pressure;altitude;pressure_sealevel;temperature;humidity
55466;BME280;41329;41.594;23.810;2023-10-31T00:00:05;95619.34;;;13.48;61.44
55466;BME280;41329;41.594;23.810;2023-10-31T00:02:31;95624.53;;;13.50;62.18
55466;BME280;41329;41.594;23.810;2023-10-31T00:04:57;95620.97;;;13.49;62.44
55466;BME280;41329;41.594;23.810;2023-10-31T00:07:22;95616.81;;;13.33;62.17
55466;BME280;41329;41.594;23.810;2023-10-31T00:09:47;95612.06;;;13.33;61.38
55466;BME280;41329;41.594;23.810;2023-10-31T00:12:13;95618.81;;;13.32;61.01
55466;BME280;41329;41.594;23.810;2023-10-31T00:14:39;95612.03;;;13.30;61.10
55466;BME280;41329;41.594;23.810;2023-10-31T00:17:04;95615.19;;;13.28;61.26
55466;BME280;41329;41.594;23.810;2023-10-31T00:19:30;95619.56;;;13.26;61.18
55466;BME280;41329;41.594;23.810;2023-10-31T00:21:55;95594.72;;;13.07;61.59
55466;BME280;41329;41.594;23.810;2023-10-31T00:24:20;95599.91;;;13.08;62.28
55466;BME280;41329;41.594;23.810;2023-10-31T00:26:46;95609.09;;;13.12;62.32
55466;BME280;41329;41.594;23.810;2023-10-31T00:29:11;95592.78;;;13.11;62.89
55466;BME280;41329;41.594;23.810;2023-10-31T00:31:37;95597.94;;;13.09;62.84
55466;BME280;41329;41.594;23.810;2023-10-31T00:34:06;95581.78;;;12.88;61.93
55466;BME280;41329;41.594;23.810;2023-10-31T00:36:31;95597.84;;;13.02;61.81
55466;BME280;41329;41.594;23.810;2023-10-31T00:38:57;95577.84;;;12.89;61.73
55466;BME280;41329;41.594;23.810;2023-10-31T00:41:22;95594.66;;;13.00;61.71
55466;BME280;41329;41.594;23.810;2023-10-31T00:43:47;95604.09;;;12.95;61.81
55466;BME280;41329;41.594;23.810;2023-10-31T00:46:13;95550.94;;;12.60;61.72
55466;BME280;41329;41.594;23.810;2023-10-31T00:48:38;95562.59;;;12.73;61.71
55466;BME280;41329;41.594;23.810;2023-10-31T00:51:04;95601.63;;;12.87;61.92
55466;BME280;41329;41.594;23.810;2023-10-31T00:53:29;95595.63;;;12.81;62.00
55466;BME280;41329;41.594;23.810;2023-10-31T00:55:55;95593.25;;;12.83;62.17
55466;BME280;41329;41.594;23.810;2023-10-31T00:58:20;95572.47;;;12.70;61.99
55466;BME280;41329;41.594;23.810;2023-10-31T01:00:46;95592.78;;;12.78;62.09
55466;BME280;41329;41.594;23.810;2023-10-31T01:03:11;95590.72;;;12.71;62.05
55466;BME280;41329;41.594;23.810;2023-10-31T01:05:36;95577.94;;;12.63;62.14
55466;BME280;41329;41.594;23.810;2023-10-31T01:08:02;95568.00;;;12.59;61.92
55466;BME280;41329;41.594;23.810;2023-10-31T01:10:27;95580.34;;;12.65;62.38
55466;BME280;41329;41.594;23.810;2023-10-31T01:12:53;95577.94;;;12.63;62.91
55466;BME280;41329;41.594;23.810;2023-10-31T01:15:18;95585.50;;;12.63;63.29
55466;BME280;41329;41.594;23.810;2023-10-31T01:17:44;95578.31;;;12.62;62.60
55466;BME280;41329;41.594;23.810;2023-10-31T01:20:09;95576.69;;;12.57;61.98
55466;BME280;41329;41.594;23.810;2023-10-31T01:22:37;95559.53;;;12.48;62.24
55466;BME280;41329;41.594;23.810;2023-10-31T01:25:02;95563.47;;;12.47;62.48
55466;BME280;41329;41.594;23.810;2023-10-31T01:27:28;95565.09;;;12.48;62.63
55466;BME280;41329;41.594;23.810;2023-10-31T01:29:53;95573.81;;;12.50;62.33
55466;BME280;41329;41.594;23.810;2023-10-31T01:32:18;95565.81;;;12.42;62.71
55466;BME280;41329;41.594;23.810;2023-10-31T01:34:44;95556.19;;;12.35;62.70
55466;BME280;41329;41.594;23.810;2023-10-31T01:37:09;95569.72;;;12.40;62.93
55466;BME280;41329;41.594;23.810;2023-10-31T01:39:37;95571.72;;;12.40;62.94
55466;BME280;41329;41.594;23.810;2023-10-31T01:42:03;95540.94;;;12.19;63.22
55466;BME280;41329;41.594;23.810;2023-10-31T01:44:28;95561.75;;;12.35;63.04
55466;BME280;41329;41.594;23.810;2023-10-31T01:46:55;95549.72;;;12.24;63.04
55466;BME280;41329;41.594;23.810;2023-10-31T01:49:20;95558.84;;;12.25;63.00
55466;BME280;41329;41.594;23.810;2023-10-31T01:51:46;95555.69;;;12.26;63.08
55466;BME280;41329;41.594;23.810;2023-10-31T01:54:13;95568.34;;;12.24;63.02
55466;BME280;41329;41.594;23.810;2023-10-31T01:56:39;95556.53;;;12.01;63.56
55466;BME280;41329;41.594;23.810;2023-10-31T01:59:06;95555.31;;;11.98;63.82
55466;BME280;41329;41.594;23.810;2023-10-31T02:01:33;95570.81;;;12.03;64.41
55466;BME280;41329;41.594;23.810;2023-10-31T02:04:01;95572.41;;;12.04;64.46
55466;BME280;41329;41.594;23.810;2023-10-31T02:06:27;95561.28;;;12.00;64.96
55466;BME280;41329;41.594;23.810;2023-10-31T02:08:55;95566.47;;;12.02;65.33
55466;BME280;41329;41.594;23.810;2023-10-31T02:11:20;95550.53;;;11.95;65.21
55466;BME280;41329;41.594;23.810;2023-10-31T02:13:46;95528.56;;;11.83;65.16
55466;BME280;41329;41.594;23.810;2023-10-31T02:16:11;95553.88;;;11.82;65.01
55466;BME280;41329;41.594;23.810;2023-10-31T02:18:36;95531.25;;;11.54;64.36
55466;BME280;41329;41.594;23.810;2023-10-31T02:21:02;95539.72;;;11.61;63.47
55466;BME280;41329;41.594;23.810;2023-10-31T02:23:27;95558.47;;;11.71;63.82
55466;BME280;41329;41.594;23.810;2023-10-31T02:25:53;95535.63;;;11.55;64.08
55466;BME280;41329;41.594;23.810;2023-10-31T02:28:18;95547.69;;;11.66;64.26
55466;BME280;41329;41.594;23.810;2023-10-31T02:30:44;95543.56;;;11.56;64.46
55466;BME280;41329;41.594;23.810;2023-10-31T02:33:09;95561.19;;;11.67;64.69
55466;BME280;41329;41.594;23.810;2023-10-31T02:35:34;95551.59;;;11.61;64.98
55466;BME280;41329;41.594;23.810;2023-10-31T02:38:00;95516.38;;;11.39;64.60
55466;BME280;41329;41.594;23.810;2023-10-31T02:40:25;95549.09;;;11.56;63.96
55466;BME280;41329;41.594;23.810;2023-10-31T02:42:51;95558.53;;;11.52;64.11
55466;BME280;41329;41.594;23.810;2023-10-31T02:45:16;95560.84;;;11.46;64.31
55466;BME280;41329;41.594;23.810;2023-10-31T02:47:42;95557.19;;;11.42;64.75
55466;BME280;41329;41.594;23.810;2023-10-31T02:50:07;95563.56;;;11.43;64.88
55466;BME280;41329;41.594;23.810;2023-10-31T02:52:33;95553.56;;;11.38;64.48
55466;BME280;41329;41.594;23.810;2023-10-31T02:54:58;95560.28;;;11.37;64.14
55466;BME280;41329;41.594;23.810;2023-10-31T02:57:24;95531.38;;;11.12;63.88
55466;BME280;41329;41.594;23.810;2023-10-31T02:59:49;95542.88;;;11.14;63.89
55466;BME280;41329;41.594;23.810;2023-10-31T03:02:15;95539.81;;;10.97;63.57
55466;BME280;41329;41.594;23.810;2023-10-31T03:04:40;95551.75;;;11.01;63.63
55466;BME280;41329;41.594;23.810;2023-10-31T03:07:05;95552.50;;;10.98;64.21
55466;BME280;41329;41.594;23.810;2023-10-31T03:09:31;95523.56;;;10.73;64.65
55466;BME280;41329;41.594;23.810;2023-10-31T03:11:56;95551.94;;;10.89;65.06
55466;BME280;41329;41.594;23.810;2023-10-31T03:14:21;95528.78;;;10.78;64.76
55466;BME280;41329;41.594;23.810;2023-10-31T03:16:47;95555.56;;;10.93;65.32
55466;BME280;41329;41.594;23.810;2023-10-31T03:19:12;95552.72;;;10.89;65.06
55466;BME280;41329;41.594;23.810;2023-10-31T03:21:38;95537.75;;;10.71;64.95
55466;BME280;41329;41.594;23.810;2023-10-31T03:24:03;95563.38;;;10.87;65.09
55466;BME280;41329;41.594;23.810;2023-10-31T03:26:29;95554.19;;;10.83;65.64
55466;BME280;41329;41.594;23.810;2023-10-31T03:28:54;95541.34;;;10.72;65.62
55466;BME280;41329;41.594;23.810;2023-10-31T03:31:23;95549.34;;;10.77;65.70
55466;BME280;41329;41.594;23.810;2023-10-31T03:33:48;95526.28;;;10.69;66.16
55466;BME280;41329;41.594;23.810;2023-10-31T03:36:14;95560.28;;;10.92;65.97
55466;BME280;41329;41.594;23.810;2023-10-31T03:38:39;95559.88;;;10.90;65.91
55466;BME280;41329;41.594;23.810;2023-10-31T03:41:06;95567.41;;;10.93;66.18
55466;BME280;41329;41.594;23.810;2023-10-31T03:43:32;95481.16;;;10.46;66.09
55466;BME280;41329;41.594;23.810;2023-10-31T03:45:58;95554.03;;;10.95;66.26
55466;BME280;41329;41.594;23.810;2023-10-31T03:48:23;95551.69;;;10.97;66.32
55466;BME280;41329;41.594;23.810;2023-10-31T03:50:48;95535.00;;;10.94;67.02
55466;BME280;41329;41.594;23.810;2023-10-31T03:53:15;95551.00;;;11.04;66.53
55466;BME280;41329;41.594;23.810;2023-10-31T03:55:41;95528.13;;;10.84;66.69
55466;BME280;41329;41.594;23.810;2023-10-31T03:58:06;95557.66;;;10.99;66.84
55466;BME280;41329;41.594;23.810;2023-10-31T04:00:32;95560.84;;;11.01;66.50
55466;BME280;41329;41.594;23.810;2023-10-31T04:02:57;95556.44;;;10.97;66.46
55466;BME280;41329;41.594;23.810;2023-10-31T04:05:22;95563.56;;;10.98;66.39
55466;BME280;41329;41.594;23.810;2023-10-31T04:07:48;95571.88;;;10.98;66.39
55466;BME280;41329;41.594;23.810;2023-10-31T04:10:14;95551.50;;;10.87;66.68
55466;BME280;41329;41.594;23.810;2023-10-31T04:12:40;95544.66;;;10.81;66.91
55466;BME280;41329;41.594;23.810;2023-10-31T04:15:08;95562.19;;;10.88;66.88
55466;BME280;41329;41.594;23.810;2023-10-31T04:17:33;95545.19;;;10.67;66.91
55466;BME280;41329;41.594;23.810;2023-10-31T04:19:58;95554.88;;;10.77;66.96
55466;BME280;41329;41.594;23.810;2023-10-31T04:22:24;95552.84;;;10.74;66.71
55466;BME280;41329;41.594;23.810;2023-10-31T04:24:49;95538.13;;;10.70;66.81
55466;BME280;41329;41.594;23.810;2023-10-31T04:27:15;95547.47;;;10.62;67.30
55466;BME280;41329;41.594;23.810;2023-10-31T04:29:40;95512.81;;;10.49;67.50
55466;BME280;41329;41.594;23.810;2023-10-31T04:32:06;95523.97;;;10.52;67.52
55466;BME280;41329;41.594;23.810;2023-10-31T04:34:31;95548.00;;;10.48;67.65
55466;BME280;41329;41.594;23.810;2023-10-31T04:36:57;95542.63;;;10.36;66.93
55466;BME280;41329;41.594;23.810;2023-10-31T04:39:23;95556.66;;;10.28;66.98
55466;BME280;41329;41.594;23.810;2023-10-31T04:41:49;95548.19;;;10.02;66.86
55466;BME280;41329;41.594;23.810;2023-10-31T04:44:14;95536.09;;;9.91;67.20
55466;BME280;41329;41.594;23.810;2023-10-31T04:46:40;95554.91;;;10.01;67.79
55466;BME280;41329;41.594;23.810;2023-10-31T04:49:05;95546.66;;;9.85;68.01
55466;BME280;41329;41.594;23.810;2023-10-31T04:51:37;95547.22;;;9.75;68.52
55466;BME280;41329;41.594;23.810;2023-10-31T04:54:03;95545.25;;;9.76;68.96
55466;BME280;41329;41.594;23.810;2023-10-31T04:56:29;95561.97;;;9.83;69.20
55466;BME280;41329;41.594;23.810;2023-10-31T04:58:54;95561.84;;;9.76;68.88
55466;BME280;41329;41.594;23.810;2023-10-31T05:01:19;95548.97;;;9.64;69.09
55466;BME280;41329;41.594;23.810;2023-10-31T05:03:45;95557.09;;;9.76;69.04
55466;BME280;41329;41.594;23.810;2023-10-31T05:06:11;95570.56;;;9.78;68.85
55466;BME280;41329;41.594;23.810;2023-10-31T05:08:36;95543.44;;;9.64;68.61
55466;BME280;41329;41.594;23.810;2023-10-31T05:11:02;95556.16;;;9.69;68.98
55466;BME280;41329;41.594;23.810;2023-10-31T05:13:28;95555.06;;;9.73;69.18
55466;BME280;41329;41.594;23.810;2023-10-31T05:15:53;95538.09;;;9.56;69.32
55466;BME280;41329;41.594;23.810;2023-10-31T05:18:19;95551.31;;;9.47;69.55
55466;BME280;41329;41.594;23.810;2023-10-31T05:20:44;95585.34;;;9.35;69.77
55466;BME280;41329;41.594;23.810;2023-10-31T05:23:10;95574.03;;;9.09;69.92
55466;BME280;41329;41.594;23.810;2023-10-31T05:25:35;95557.84;;;9.08;70.69
55466;BME280;41329;41.594;23.810;2023-10-31T05:28:01;95574.19;;;9.32;70.98
55466;BME280;41329;41.594;23.810;2023-10-31T05:30:27;95554.25;;;9.23;70.98
55466;BME280;41329;41.594;23.810;2023-10-31T05:32:52;95575.34;;;9.46;71.50
55466;BME280;41329;41.594;23.810;2023-10-31T05:35:18;95566.28;;;9.46;71.85
55466;BME280;41329;41.594;23.810;2023-10-31T05:37:45;95558.72;;;9.27;71.07
55466;BME280;41329;41.594;23.810;2023-10-31T05:40:11;95559.69;;;9.35;71.63
55466;BME280;41329;41.594;23.810;2023-10-31T05:42:37;95592.56;;;9.40;71.84
55466;BME280;41329;41.594;23.810;2023-10-31T05:45:02;95568.59;;;8.82;72.88
55466;BME280;41329;41.594;23.810;2023-10-31T05:47:28;95613.75;;;9.20;72.46
55466;BME280;41329;41.594;23.810;2023-10-31T05:49:53;95605.47;;;9.20;73.05
55466;BME280;41329;41.594;23.810;2023-10-31T05:52:19;95590.16;;;9.23;72.88
55466;BME280;41329;41.594;23.810;2023-10-31T05:54:44;95579.31;;;9.30;72.92
55466;BME280;41329;41.594;23.810;2023-10-31T05:57:10;95588.81;;;9.48;73.77
55466;BME280;41329;41.594;23.810;2023-10-31T05:59:35;95571.97;;;9.37;73.47
55466;BME280;41329;41.594;23.810;2023-10-31T06:02:01;95597.63;;;9.53;73.50
55466;BME280;41329;41.594;23.810;2023-10-31T06:04:26;95602.50;;;9.60;73.56
55466;BME280;41329;41.594;23.810;2023-10-31T06:06:52;95607.59;;;9.58;73.91
55466;BME280;41329;41.594;23.810;2023-10-31T06:09:17;95597.44;;;9.46;74.24
55466;BME280;41329;41.594;23.810;2023-10-31T06:11:43;95599.56;;;9.53;74.11
55466;BME280;41329;41.594;23.810;2023-10-31T06:14:09;95574.31;;;9.35;74.48
55466;BME280;41329;41.594;23.810;2023-10-31T06:16:43;95570.13;;;9.26;75.41
55466;BME280;41329;41.594;23.810;2023-10-31T06:19:09;95600.28;;;9.34;75.80
55466;BME280;41329;41.594;23.810;2023-10-31T06:21:34;95604.22;;;9.33;76.35
55466;BME280;41329;41.594;23.810;2023-10-31T06:24:00;95606.09;;;9.45;76.50
55466;BME280;41329;41.594;23.810;2023-10-31T06:26:25;95583.81;;;9.53;76.54
55466;BME280;41329;41.594;23.810;2023-10-31T06:28:51;95609.97;;;9.75;76.62
55466;BME280;41329;41.594;23.810;2023-10-31T06:31:16;95579.19;;;9.76;76.35
55466;BME280;41329;41.594;23.810;2023-10-31T06:33:41;95587.53;;;9.61;75.84
55466;BME280;41329;41.594;23.810;2023-10-31T06:36:07;95607.03;;;9.68;76.03
55466;BME280;41329;41.594;23.810;2023-10-31T06:38:33;95603.00;;;9.81;75.43
55466;BME280;41329;41.594;23.810;2023-10-31T06:40:59;95601.84;;;9.82;75.67
55466;BME280;41329;41.594;23.810;2023-10-31T06:43:24;95600.59;;;9.79;75.83
55466;BME280;41329;41.594;23.810;2023-10-31T06:45:50;95595.63;;;9.69;75.15
55466;BME280;41329;41.594;23.810;2023-10-31T06:48:15;95553.22;;;9.62;74.85
55466;BME280;41329;41.594;23.810;2023-10-31T06:50:40;95585.72;;;9.84;75.46
55466;BME280;41329;41.594;23.810;2023-10-31T06:53:06;95583.59;;;9.77;75.60
55466;BME280;41329;41.594;23.810;2023-10-31T06:55:31;95580.09;;;9.80;75.78
55466;BME280;41329;41.594;23.810;2023-10-31T06:57:57;95593.72;;;9.89;75.95
55466;BME280;41329;41.594;23.810;2023-10-31T07:00:22;95596.19;;;9.94;75.65
55466;BME280;41329;41.594;23.810;2023-10-31T07:02:48;95564.69;;;9.79;75.73
55466;BME280;41329;41.594;23.810;2023-10-31T07:05:13;95563.31;;;9.89;75.79
55466;BME280;41329;41.594;23.810;2023-10-31T07:07:39;95583.22;;;10.13;74.90
55466;BME280;41329;41.594;23.810;2023-10-31T07:10:05;95592.25;;;10.29;74.77
55466;BME280;41329;41.594;23.810;2023-10-31T07:12:31;95587.97;;;10.32;75.16
55466;BME280;41329;41.594;23.810;2023-10-31T07:14:56;95559.38;;;10.24;75.70
55466;BME280;41329;41.594;23.810;2023-10-31T07:17:24;95594.44;;;10.58;76.23
55466;BME280;41329;41.594;23.810;2023-10-31T07:19:49;95575.59;;;10.64;75.47
55466;BME280;41329;41.594;23.810;2023-10-31T07:22:14;95560.94;;;10.63;75.52
55466;BME280;41329;41.594;23.810;2023-10-31T07:24:40;95579.97;;;10.87;75.57
55466;BME280;41329;41.594;23.810;2023-10-31T07:27:06;95580.78;;;10.88;75.12
55466;BME280;41329;41.594;23.810;2023-10-31T07:29:31;95570.28;;;10.97;75.29
55466;BME280;41329;41.594;23.810;2023-10-31T07:31:56;95590.75;;;10.92;74.63
55466;BME280;41329;41.594;23.810;2023-10-31T07:34:22;95538.50;;;10.68;74.70
55466;BME280;41329;41.594;23.810;2023-10-31T07:36:47;95564.94;;;11.07;75.67
55466;BME280;41329;41.594;23.810;2023-10-31T07:39:12;95565.22;;;11.02;75.64
55466;BME280;41329;41.594;23.810;2023-10-31T07:41:39;95572.56;;;11.14;75.71
55466;BME280;41329;41.594;23.810;2023-10-31T07:44:06;95552.69;;;11.08;76.10
55466;BME280;41329;41.594;23.810;2023-10-31T07:46:31;95553.72;;;11.23;76.25
55466;BME280;41329;41.594;23.810;2023-10-31T07:48:57;95548.19;;;11.49;76.82
55466;BME280;41329;41.594;23.810;2023-10-31T07:51:22;95565.72;;;11.79;76.12
55466;BME280;41329;41.594;23.810;2023-10-31T07:53:48;95550.25;;;11.78;75.29
55466;BME280;41329;41.594;23.810;2023-10-31T07:56:17;95554.66;;;12.08;75.16
55466;BME280;41329;41.594;23.810;2023-10-31T07:58:43;95558.34;;;12.19;74.40
55466;BME280;41329;41.594;23.810;2023-10-31T08:01:09;95559.69;;;12.29;73.61
55466;BME280;41329;41.594;23.810;2023-10-31T08:03:37;95533.88;;;12.25;73.23
55466;BME280;41329;41.594;23.810;2023-10-31T08:06:05;95540.03;;;12.44;73.90
55466;BME280;41329;41.594;23.810;2023-10-31T08:08:30;95532.44;;;12.38;73.25
55466;BME280;41329;41.594;23.810;2023-10-31T08:10:56;95525.81;;;12.49;73.91
55466;BME280;41329;41.594;23.810;2023-10-31T08:13:23;95531.19;;;12.65;72.38
55466;BME280;41329;41.594;23.810;2023-10-31T08:15:49;95527.63;;;12.68;72.77
55466;BME280;41329;41.594;23.810;2023-10-31T08:18:14;95532.81;;;12.70;72.19
55466;BME280;41329;41.594;23.810;2023-10-31T08:20:40;95504.78;;;12.82;73.21
55466;BME280;41329;41.594;23.810;2023-10-31T08:23:05;95524.16;;;13.15;72.96
55466;BME280;41329;41.594;23.810;2023-10-31T08:25:31;95525.13;;;13.33;73.35
55466;BME280;41329;41.594;23.810;2023-10-31T08:27:56;95522.13;;;13.55;72.68
55466;BME280;41329;41.594;23.810;2023-10-31T08:30:22;95518.97;;;13.60;70.28
55466;BME280;41329;41.594;23.810;2023-10-31T08:32:47;95507.53;;;13.69;70.09
55466;BME280;41329;41.594;23.810;2023-10-31T08:35:12;95499.75;;;13.95;69.27
55466;BME280;41329;41.594;23.810;2023-10-31T08:37:38;95497.84;;;14.13;68.90
55466;BME280;41329;41.594;23.810;2023-10-31T08:40:04;95488.00;;;14.30;68.54
55466;BME280;41329;41.594;23.810;2023-10-31T08:42:30;95487.34;;;14.61;67.29
55466;BME280;41329;41.594;23.810;2023-10-31T08:44:55;95485.78;;;14.74;66.00
55466;BME280;41329;41.594;23.810;2023-10-31T08:47:20;95481.84;;;14.92;64.99
55466;BME280;41329;41.594;23.810;2023-10-31T08:49:46;95482.66;;;15.07;64.24
55466;BME280;41329;41.594;23.810;2023-10-31T08:52:11;95459.56;;;15.06;63.90
55466;BME280;41329;41.594;23.810;2023-10-31T08:54:37;95477.50;;;15.23;62.76
55466;BME280;41329;41.594;23.810;2023-10-31T08:57:02;95461.16;;;15.32;62.20
55466;BME280;41329;41.594;23.810;2023-10-31T08:59:28;95458.41;;;15.42;61.90
55466;BME280;41329;41.594;23.810;2023-10-31T09:01:53;95432.91;;;15.47;63.35
55466;BME280;41329;41.594;23.810;2023-10-31T09:04:19;95451.16;;;15.80;60.17
55466;BME280;41329;41.594;23.810;2023-10-31T09:06:44;95427.25;;;15.79;60.24
55466;BME280;41329;41.594;23.810;2023-10-31T09:09:09;95443.13;;;16.03;60.25
55466;BME280;41329;41.594;23.810;2023-10-31T09:11:35;95437.91;;;16.15;59.80
55466;BME280;41329;41.594;23.810;2023-10-31T09:14:01;95427.13;;;16.17;59.02
55466;BME280;41329;41.594;23.810;2023-10-31T09:16:26;95430.63;;;16.46;58.87
55466;BME280;41329;41.594;23.810;2023-10-31T09:18:51;95429.69;;;16.66;58.92
55466;BME280;41329;41.594;23.810;2023-10-31T09:21:17;95429.13;;;16.92;58.04
55466;BME280;41329;41.594;23.810;2023-10-31T09:23:43;95424.75;;;16.91;57.56
55466;BME280;41329;41.594;23.810;2023-10-31T09:26:08;95418.94;;;17.19;56.88
55466;BME280;41329;41.594;23.810;2023-10-31T09:28:35;95416.31;;;17.49;57.07
55466;BME280;41329;41.594;23.810;2023-10-31T09:31:01;95392.19;;;17.62;56.13
55466;BME280;41329;41.594;23.810;2023-10-31T09:33:27;95396.63;;;17.97;56.01
55466;BME280;41329;41.594;23.810;2023-10-31T09:35:52;95410.78;;;18.17;53.83
55466;BME280;41329;41.594;23.810;2023-10-31T09:38:17;95397.75;;;18.37;53.22
55466;BME280;41329;41.594;23.810;2023-10-31T09:40:43;95400.75;;;18.53;52.67
55466;BME280;41329;41.594;23.810;2023-10-31T09:43:09;95383.69;;;18.70;51.68
55466;BME280;41329;41.594;23.810;2023-10-31T09:45:34;95379.63;;;18.75;51.39
55466;BME280;41329;41.594;23.810;2023-10-31T09:48:01;95366.69;;;18.81;50.76
55466;BME280;41329;41.594;23.810;2023-10-31T09:50:28;95345.44;;;18.83;50.60
55466;BME280;41329;41.594;23.810;2023-10-31T09:52:55;95370.72;;;19.06;50.39
55466;BME280;41329;41.594;23.810;2023-10-31T09:55:22;95353.81;;;19.10;49.17
55466;BME280;41329;41.594;23.810;2023-10-31T09:57:47;95361.72;;;19.41;52.38
55466;BME280;41329;41.594;23.810;2023-10-31T10:00:13;95353.66;;;19.66;50.30
55466;BME280;41329;41.594;23.810;2023-10-31T10:02:38;95351.97;;;19.92;48.60
55466;BME280;41329;41.594;23.810;2023-10-31T10:05:04;95346.00;;;20.09;49.13
55466;BME280;41329;41.594;23.810;2023-10-31T10:07:33;95340.81;;;20.27;46.76
55466;BME280;41329;41.594;23.810;2023-10-31T10:09:59;95331.31;;;20.21;47.04
55466;BME280;41329;41.594;23.810;2023-10-31T10:12:26;95307.78;;;20.15;45.83
55466;BME280;41329;41.594;23.810;2023-10-31T10:14:52;95329.91;;;20.49;48.57
55466;BME280;41329;41.594;23.810;2023-10-31T10:17:24;95322.47;;;20.58;45.04
55466;BME280;41329;41.594;23.810;2023-10-31T10:20:11;95313.22;;;20.42;44.72
55466;BME280;41329;41.594;23.810;2023-10-31T10:22:40;95300.31;;;20.44;45.25
55466;BME280;41329;41.594;23.810;2023-10-31T10:25:12;95300.97;;;20.68;45.80
55466;BME280;41329;41.594;23.810;2023-10-31T10:27:39;95309.81;;;21.02;45.06
55466;BME280;41329;41.594;23.810;2023-10-31T10:30:07;95285.09;;;21.09;45.75
55466;BME280;41329;41.594;23.810;2023-10-31T10:32:33;95274.16;;;21.27;44.46
55466;BME280;41329;41.594;23.810;2023-10-31T10:34:58;95286.09;;;21.47;43.42
55466;BME280;41329;41.594;23.810;2023-10-31T10:37:26;95264.00;;;21.46;43.73
55466;BME280;41329;41.594;23.810;2023-10-31T10:39:52;95276.47;;;21.61;42.43
55466;BME280;41329;41.594;23.810;2023-10-31T10:42:31;95258.88;;;21.73;44.84
55466;BME280;41329;41.594;23.810;2023-10-31T10:45:02;95274.19;;;22.13;43.48
55466;BME280;41329;41.594;23.810;2023-10-31T10:47:30;95277.22;;;22.47;44.24
55466;BME280;41329;41.594;23.810;2023-10-31T10:49:59;95270.47;;;22.57;41.12
55466;BME280;41329;41.594;23.810;2023-10-31T10:52:32;95255.91;;;22.71;42.60
55466;BME280;41329;41.594;23.810;2023-10-31T10:55:04;95257.38;;;22.88;40.49
55466;BME280;41329;41.594;23.810;2023-10-31T11:00:02;95242.25;;;22.94;40.05
55466;BME280;41329;41.594;23.810;2023-10-31T11:02:30;95218.00;;;22.72;40.53
55466;BME280;41329;41.594;23.810;2023-10-31T11:04:56;95226.81;;;22.74;39.94
55466;BME280;41329;41.594;23.810;2023-10-31T11:07:24;95238.88;;;22.74;40.36
55466;BME280;41329;41.594;23.810;2023-10-31T11:09:51;95209.13;;;22.61;40.17
55466;BME280;41329;41.594;23.810;2023-10-31T11:12:18;95196.81;;;22.67;40.55
55466;BME280;41329;41.594;23.810;2023-10-31T11:14:45;95225.44;;;22.91;40.16
55466;BME280;41329;41.594;23.810;2023-10-31T11:17:19;95213.03;;;22.88;39.67
55466;BME280;41329;41.594;23.810;2023-10-31T11:19:48;95204.31;;;22.95;40.11
55466;BME280;41329;41.594;23.810;2023-10-31T11:22:17;95188.53;;;22.98;40.58
55466;BME280;41329;41.594;23.810;2023-10-31T11:24:43;95203.50;;;23.20;40.22
55466;BME280;41329;41.594;23.810;2023-10-31T11:27:08;95204.38;;;23.30;39.60
55466;BME280;41329;41.594;23.810;2023-10-31T11:29:36;95191.22;;;23.48;40.27
55466;BME280;41329;41.594;23.810;2023-10-31T11:32:01;95202.19;;;23.68;40.46
55466;BME280;41329;41.594;23.810;2023-10-31T11:34:29;95198.66;;;23.98;39.39
55466;BME280;41329;41.594;23.810;2023-10-31T11:42:57;95114.53;;;24.41;37.48
55466;BME280;41329;41.594;23.810;2023-10-31T11:45:33;95112.81;;;24.44;37.29
55466;BME280;41329;41.594;23.810;2023-10-31T11:48:00;95163.53;;;24.69;36.53
55466;BME280;41329;41.594;23.810;2023-10-31T11:50:26;95164.06;;;24.55;36.75
55466;BME280;41329;41.594;23.810;2023-10-31T11:53:10;95169.19;;;24.69;37.00
55466;BME280;41329;41.594;23.810;2023-10-31T11:55:43;95169.06;;;24.81;38.00
55466;BME280;41329;41.594;23.810;2023-10-31T11:58:24;95143.72;;;24.69;35.96
55466;BME280;41329;41.594;23.810;2023-10-31T12:01:03;95154.72;;;24.67;37.28
55466;BME280;41329;41.594;23.810;2023-10-31T12:03:40;95134.44;;;24.68;37.55
55466;BME280;41329;41.594;23.810;2023-10-31T12:06:06;95134.28;;;24.72;37.04
55466;BME280;41329;41.594;23.810;2023-10-31T12:08:35;95129.28;;;24.76;37.06
55466;BME280;41329;41.594;23.810;2023-10-31T12:13:29;95120.47;;;24.65;36.05
55466;BME280;41329;41.594;23.810;2023-10-31T12:15:55;95125.78;;;24.63;36.37
55466;BME280;41329;41.594;23.810;2023-10-31T12:18:20;95121.09;;;24.29;36.31
55466;BME280;41329;41.594;23.810;2023-10-31T12:20:49;95116.63;;;24.19;37.00
55466;BME280;41329;41.594;23.810;2023-10-31T12:23:15;95109.28;;;24.22;37.37
55466;BME280;41329;41.594;23.810;2023-10-31T12:25:50;95097.19;;;24.21;37.73
55466;BME280;41329;41.594;23.810;2023-10-31T12:28:20;95118.66;;;24.10;37.63
55466;BME280;41329;41.594;23.810;2023-10-31T12:30:48;95112.66;;;24.08;38.26
55466;BME280;41329;41.594;23.810;2023-10-31T12:33:13;95108.72;;;24.05;38.05
55466;BME280;41329;41.594;23.810;2023-10-31T12:35:39;95082.53;;;23.83;38.07
55466;BME280;41329;41.594;23.810;2023-10-31T12:38:06;95107.16;;;24.04;38.93
55466;BME280;41329;41.594;23.810;2023-10-31T12:40:31;95104.69;;;24.15;38.62
55466;BME280;41329;41.594;23.810;2023-10-31T12:42:58;95115.53;;;24.17;37.97
55466;BME280;41329;41.594;23.810;2023-10-31T12:45:24;95097.75;;;24.07;37.94
55466;BME280;41329;41.594;23.810;2023-10-31T12:48:10;95093.09;;;24.22;38.69
55466;BME280;41329;41.594;23.810;2023-10-31T12:50:37;95086.38;;;24.38;38.90
55466;BME280;41329;41.594;23.810;2023-10-31T12:53:05;95009.19;;;24.10;37.96
55466;BME280;41329;41.594;23.810;2023-10-31T12:55:37;95067.16;;;24.63;38.27
55466;BME280;41329;41.594;23.810;2023-10-31T12:58:03;95060.88;;;24.68;37.43